Time;durP1;ratioP1;P1;durP2;ratioP2;P2;SDS_P1;SDS_P2;PMS_P1;PMS_P2;Temp;Humidity;BMP_temperature;BMP_pressure;BME280_temperature;BME280_humidity;BME280_pressure;Samples;Min_cycle;Max_cycle;Signal;HPM_P1;HPM_P2
2021/12/21 00:02:21;;;;;;;7.27;2.37;;;;;;;-3.15;97.14;99370.88;4991612;28;20190;-58
2021/12/21 00:04:48;;;;;;;6.47;2.20;;;;;;;-3.22;98.03;99369.41;4990821;28;20198;-56
2021/12/21 00:07:15;;;;;;;5.17;1.90;;;;;;;-3.27;98.61;99356.78;4991563;28;20219;-59
2021/12/21 00:09:41;;;;;;;5.40;2.37;;;;;;;-3.22;97.98;99361.75;4989773;28;20283;-59
2021/12/21 00:12:10;;;;;;;7.70;1.80;;;;;;;-3.23;98.87;99351.56;4990836;28;20538;-56
2021/12/21 00:14:46;;;;;;;4.30;2.10;;;;;;;-3.31;99.09;99344.97;4991418;28;20191;-60
2021/12/21 00:17:20;;;;;;;7.93;2.43;;;;;;;-3.36;98.85;99346.81;4990624;28;20260;-60
2021/12/21 00:20:03;;;;;;;10.40;2.97;;;;;;;-3.37;99.39;99337.50;4987746;28;20613;-58
2021/12/21 00:25:11;;;;;;;8.03;2.37;;;;;;;-3.33;98.34;99338.25;4991043;28;20214;-58
2021/12/21 00:27:38;;;;;;;7.80;2.20;;;;;;;-3.23;99.11;99333.69;4991579;28;20219;-58
2021/12/21 00:30:06;;;;;;;9.87;2.50;;;;;;;-3.27;98.09;99330.41;5004114;28;20217;-56
2021/12/21 00:32:33;;;;;;;6.10;2.37;;;;;;;-3.34;98.39;99327.19;4990868;28;20195;-59
2021/12/21 00:35:00;;;;;;;6.63;2.30;;;;;;;-3.38;98.58;99325.63;4991295;28;20211;-58
2021/12/21 00:37:28;;;;;;;4.70;2.33;;;;;;;-3.47;98.98;99323.31;4991421;28;20183;-59
2021/12/21 00:39:56;;;;;;;5.27;2.47;;;;;;;-3.48;98.77;99322.50;4990453;28;20278;-59
2021/12/21 00:42:23;;;;;;;9.83;2.33;;;;;;;-3.48;98.83;99319.09;4991240;28;20199;-59
2021/12/21 00:44:49;;;;;;;8.27;2.47;;;;;;;-3.42;98.81;99317.22;4991482;28;20273;-58
2021/12/21 00:47:17;;;;;;;4.57;1.93;;;;;;;-3.50;97.71;99319.16;4990618;28;20310;-57
2021/12/21 00:49:47;;;;;;;9.73;2.20;;;;;;;-3.58;97.68;99324.47;4993671;28;20229;-58
2021/12/21 00:52:14;;;;;;;7.00;2.23;;;;;;;-3.54;98.95;99319.28;5010973;28;20249;-58
2021/12/21 00:54:42;;;;;;;6.57;2.57;;;;;;;-3.35;98.42;99322.16;5010582;28;20282;-57
2021/12/21 00:57:09;;;;;;;6.93;2.30;;;;;;;-3.44;97.98;99319.00;5010677;28;20215;-57
2021/12/21 00:59:36;;;;;;;8.37;2.27;;;;;;;-3.49;97.99;99320.00;5011575;28;20292;-59
2021/12/21 01:02:03;;;;;;;5.30;2.80;;;;;;;-3.40;96.81;99314.63;5014052;28;20194;-59
2021/12/21 01:04:35;;;;;;;6.47;2.30;;;;;;;-3.34;98.39;99311.88;5014377;28;20195;-59
2021/12/21 01:07:09;;;;;;;6.40;2.10;;;;;;;-3.35;97.31;99304.28;5013987;28;20218;-57
2021/12/21 01:12:35;;;;;;;3.57;1.80;;;;;;;-3.51;95.41;99306.44;5007060;28;20687;-59
2021/12/21 01:15:13;;;;;;;4.40;1.70;;;;;;;-3.48;95.17;99306.34;5014093;28;20582;-59
2021/12/21 01:17:50;;;;;;;3.33;1.70;;;;;;;-3.54;95.78;99314.19;5013235;28;20191;-59
2021/12/21 01:20:29;;;;;;;5.73;2.13;;;;;;;-3.55;96.42;99310.81;4992154;28;20201;-59
2021/12/21 01:23:20;;;;;;;9.80;2.07;;;;;;;-3.59;96.53;99311.78;4994916;28;20181;-56
2021/12/21 01:25:52;;;;;;;7.07;1.73;;;;;;;-3.57;95.88;99307.47;4994395;28;20218;-57
2021/12/21 01:28:31;;;;;;;4.30;1.80;;;;;;;-3.53;94.95;99306.50;4994536;28;20186;-56
2021/12/21 01:31:05;;;;;;;8.70;2.30;;;;;;;-3.58;94.76;99298.94;4993952;28;20194;-59
2021/12/21 01:33:46;;;;;;;4.10;1.80;;;;;;;-3.53;96.52;99306.50;4993787;28;20194;-58
2021/12/21 01:36:22;;;;;;;4.53;1.77;;;;;;;-3.59;95.78;99316.88;4993920;28;20214;-57
2021/12/21 01:38:57;;;;;;;4.33;1.57;;;;;;;-3.67;94.99;99304.31;4993800;28;20696;-59
2021/12/21 01:41:31;;;;;;;5.20;1.57;;;;;;;-3.66;94.59;99310.28;4993923;28;20194;-56
2021/12/21 01:44:10;;;;;;;4.23;1.70;;;;;;;-3.67;94.82;99308.59;4994069;28;20198;-57
2021/12/21 01:49:38;;;;;;;5.40;1.80;;;;;;;-3.67;94.98;99306.06;4971827;28;20213;-58
2021/12/21 01:52:06;;;;;;;4.63;1.80;;;;;;;-3.69;93.21;99315.47;4994009;28;20189;-57
2021/12/21 01:54:34;;;;;;;2.83;1.40;;;;;;;-3.56;93.38;99315.06;4993819;28;20565;-56
2021/12/21 01:57:01;;;;;;;5.47;1.60;;;;;;;-3.67;94.19;99309.44;4993264;28;20206;-56
2021/12/21 01:59:28;;;;;;;5.30;1.53;;;;;;;-3.67;94.19;99308.59;4993841;28;20306;-54
2021/12/21 02:01:55;;;;;;;6.60;1.60;;;;;;;-3.74;94.55;99306.22;4992652;28;20191;-57
2021/12/21 02:04:22;;;;;;;4.47;1.73;;;;;;;-3.66;94.08;99307.72;4993678;28;20678;-57
2021/12/21 02:06:49;;;;;;;2.93;1.40;;;;;;;-3.59;93.15;99307.50;4993635;28;20281;-58
2021/12/21 02:09:19;;;;;;;4.97;1.40;;;;;;;-3.58;94.09;99303.25;4992914;28;20183;-58
2021/12/21 02:11:48;;;;;;;4.27;1.53;;;;;;;-3.68;93.69;99306.94;4993577;28;20278;-59
2021/12/21 02:14:15;;;;;;;3.50;1.57;;;;;;;-3.79;93.79;99302.97;4993695;28;20197;-56
2021/12/21 02:16:52;;;;;;;2.60;1.33;;;;;;;-3.80;94.37;99298.75;4992613;28;20592;-58
2021/12/21 02:19:25;;;;;;;3.10;1.27;;;;;;;-3.89;94.44;99302.41;4997009;28;20217;-57
2021/12/21 02:21:56;;;;;;;3.77;1.60;;;;;;;-3.86;94.32;99297.22;4991492;28;20226;-59
2021/12/21 02:24:37;;;;;;;2.57;1.50;;;;;;;-3.90;94.31;99294.78;4992949;28;20197;-56
2021/12/21 02:27:17;;;;;;;7.10;1.93;;;;;;;-3.88;94.55;99293.88;4993028;28;20214;-57
2021/12/21 02:29:44;;;;;;;6.23;2.20;;;;;;;-3.86;93.02;99287.00;4992715;28;20196;-57
2021/12/21 02:32:12;;;;;;;4.60;1.60;;;;;;;-3.89;91.75;99291.34;4992846;28;20249;-59
2021/12/21 02:34:42;;;;;;;4.30;1.73;;;;;;;-3.87;92.73;99293.00;4992876;28;20218;-59
2021/12/21 02:37:10;;;;;;;5.67;1.67;;;;;;;-3.92;93.75;99296.53;4992808;28;20195;-58
2021/12/21 02:39:37;;;;;;;4.53;1.47;;;;;;;-3.98;93.04;99297.56;4991906;28;20294;-58
2021/12/21 02:42:04;;;;;;;7.73;1.90;;;;;;;-4.03;93.46;99289.19;4993012;28;20555;-58
2021/12/21 02:44:31;;;;;;;4.63;2.00;;;;;;;-4.05;93.98;99296.06;4993313;28;20572;-59
2021/12/21 02:46:58;;;;;;;3.67;1.40;;;;;;;-4.02;94.86;99286.59;4992295;28;20242;-58
2021/12/21 02:49:25;;;;;;;3.83;1.57;;;;;;;-4.07;94.31;99290.97;4993002;28;20197;-58
2021/12/21 02:51:52;;;;;;;5.43;1.90;;;;;;;-4.07;94.97;99282.50;5011979;28;20188;-56
2021/12/21 02:54:21;;;;;;;5.13;1.50;;;;;;;-3.93;94.44;99290.63;5011738;28;20638;-56
2021/12/21 02:56:48;;;;;;;4.03;1.73;;;;;;;-4.02;94.77;99286.59;4994791;28;20210;-59
2021/12/21 02:59:18;;;;;;;4.40;1.60;;;;;;;-4.02;95.32;99284.03;4992383;28;20268;-56
2021/12/21 03:01:44;;;;;;;3.30;1.40;;;;;;;-4.05;95.38;99288.41;4991583;28;20195;-57
2021/12/21 03:04:11;;;;;;;6.97;1.90;;;;;;;-4.11;94.98;99278.38;4992799;28;20261;-57
2021/12/21 03:09:41;;;;;;;3.73;1.43;;;;;;;-4.15;94.89;99275.91;4967965;28;20692;-58
2021/12/21 03:12:27;;;;;;;6.65;2.15;;;;;;;-4.03;94.78;99273.91;4991828;28;20425;-57
2021/12/21 03:14:53;;;;;;;7.03;2.13;;;;;;;-4.00;94.84;99279.72;4992276;28;20195;-58
2021/12/21 03:17:21;;;;;;;6.80;2.10;;;;;;;-4.06;94.61;99284.19;4992075;28;20280;-59
2021/12/21 03:19:47;;;;;;;8.07;1.70;;;;;;;-4.09;94.72;99284.25;4991271;28;20215;-57
2021/12/21 03:22:17;;;;;;;2.73;1.83;;;;;;;-4.13;94.09;99290.31;4991000;28;20241;-56
2021/12/21 03:24:45;;;;;;;3.73;1.50;;;;;;;-4.15;94.20;99291.19;4992077;28;20185;-58
2021/12/21 03:27:12;;;;;;;5.13;1.40;;;;;;;-4.11;93.96;99289.38;4992085;28;20285;-59
2021/12/21 03:29:39;;;;;;;6.37;1.70;;;;;;;-4.21;93.68;99283.72;4991351;28;20182;-58
2021/12/21 03:32:07;;;;;;;4.83;1.63;;;;;;;-4.26;94.37;99292.38;4991702;28;20845;-58
2021/12/21 03:34:33;;;;;;;4.70;1.70;;;;;;;-4.11;94.66;99297.03;4992165;28;20196;-56
2021/12/21 03:37:05;;;;;;;3.77;1.77;;;;;;;-4.17;93.28;99294.66;4991809;28;20210;-58
2021/12/21 03:39:32;;;;;;;7.07;1.70;;;;;;;-4.30;93.66;99284.81;4991372;28;20288;-59
2021/12/21 03:42:00;;;;;;;9.40;1.80;;;;;;;-4.30;95.02;99286.50;4991674;28;20206;-58
2021/12/21 03:44:28;;;;;;;6.57;1.70;;;;;;;-4.25;93.93;99283.84;4992069;28;20238;-59
2021/12/21 03:46:56;;;;;;;3.90;1.50;;;;;;;-4.31;93.42;99279.75;4991627;28;20210;-58
2021/12/21 03:52:23;;;;;;;8.50;1.70;;;;;;;-4.36;93.80;99277.31;5149636;27;20539;-57
2021/12/21 03:54:52;;;;;;;2.50;1.57;;;;;;;-4.27;94.62;99275.41;5150012;27;20185;-58
2021/12/21 03:57:19;;;;;;;5.20;1.70;;;;;;;-4.33;94.30;99274.69;5150165;27;20387;-56
2021/12/21 03:59:48;;;;;;;10.07;3.17;;;;;;;-4.33;95.13;99278.94;5148792;27;20260;-56
2021/12/21 04:02:15;;;;;;;7.03;1.83;;;;;;;-4.33;94.32;99282.34;5149542;27;20182;-59
2021/12/21 04:04:44;;;;;;;7.77;1.77;;;;;;;-4.37;94.53;99282.44;5150018;27;20187;-59
2021/12/21 04:07:11;;;;;;;2.90;1.37;;;;;;;-4.28;94.30;99269.47;5149273;27;20697;-58
2021/12/21 04:09:39;;;;;;;8.70;1.83;;;;;;;-4.36;93.82;99271.38;5148996;27;20193;-58
2021/12/21 04:12:06;;;;;;;5.47;1.57;;;;;;;-4.26;95.22;99284.72;5149656;27;20298;-57
2021/12/21 04:14:35;;;;;;;2.50;1.23;;;;;;;-4.28;93.62;99273.75;5148910;27;20563;-58
2021/12/21 04:17:01;;;;;;;7.60;2.33;;;;;;;-4.34;94.60;99274.72;5149717;27;20228;-58
2021/12/21 04:19:28;;;;;;;5.37;1.50;;;;;;;-4.40;94.92;99277.44;5149557;27;20233;-57
2021/12/21 04:22:00;;;;;;;7.73;1.80;;;;;;;-4.42;95.01;99269.84;5142288;27;20301;-57
2021/12/21 04:24:27;;;;;;;4.77;2.00;;;;;;;-4.50;94.69;99270.03;5131287;27;20736;-56
2021/12/21 04:26:55;;;;;;;8.57;1.80;;;;;;;-4.54;95.06;99267.59;5128482;27;20229;-58
2021/12/21 04:29:22;;;;;;;7.37;1.73;;;;;;;-4.45;94.36;99268.19;5128085;28;20213;-58
2021/12/21 04:31:49;;;;;;;5.93;1.37;;;;;;;-4.41;95.30;99275.75;5128077;27;20204;-58
2021/12/21 04:34:16;;;;;;;6.80;1.33;;;;;;;-4.32;93.57;99266.16;5128445;28;20180;-57
2021/12/21 04:36:44;;;;;;;4.70;1.57;;;;;;;-4.45;93.79;99262.28;5128330;27;20205;-56
2021/12/21 04:39:21;;;;;;;4.97;1.40;;;;;;;-4.36;94.86;99261.19;5128108;28;20186;-58
2021/12/21 04:41:48;;;;;;;5.93;2.00;;;;;;;-4.48;94.47;99268.28;5128063;28;20672;-55
2021/12/21 04:44:16;;;;;;;6.10;1.53;;;;;;;-4.52;94.67;99265.84;5128279;28;20227;-59
2021/12/21 04:46:43;;;;;;;4.30;1.80;;;;;;;-4.47;94.43;99266.56;5128279;28;20233;-56
2021/12/21 04:49:10;;;;;;;4.20;1.40;;;;;;;-4.47;94.51;99254.66;5128316;28;20197;-59
2021/12/21 04:51:37;;;;;;;4.13;1.53;;;;;;;-4.48;94.05;99262.34;5136083;27;20216;-56
2021/12/21 04:54:06;;;;;;;4.07;1.67;;;;;;;-4.53;94.79;99259.91;5146305;27;20195;-53
2021/12/21 04:56:34;;;;;;;7.73;2.03;;;;;;;-4.50;95.19;99256.47;5149153;27;20209;-56
2021/12/21 04:59:00;;;;;;;3.13;1.57;;;;;;;-4.42;93.46;99266.44;5148462;27;20271;-56
2021/12/21 05:01:28;;;;;;;7.87;1.77;;;;;;;-4.52;93.79;99259.03;5143775;27;20203;-58
2021/12/21 05:03:55;;;;;;;3.17;1.43;;;;;;;-4.53;93.45;99262.47;5134277;27;20264;-56
2021/12/21 05:06:22;;;;;;;5.87;1.93;;;;;;;-4.60;93.52;99258.41;5134311;27;20767;-56
2021/12/21 05:09:05;;;;;;;4.07;1.83;;;;;;;-4.64;94.07;99257.66;5134794;27;20229;-56
2021/12/21 05:11:34;;;;;;;4.83;1.60;;;;;;;-4.67;93.69;99250.09;5134186;27;20212;-56
2021/12/21 05:14:01;;;;;;;7.50;1.97;;;;;;;-4.67;93.83;99246.69;5133091;27;20185;-59
2021/12/21 05:16:29;;;;;;;4.53;1.53;;;;;;;-4.62;92.51;99253.34;5134652;27;20193;-56
2021/12/21 05:18:56;;;;;;;3.60;1.77;;;;;;;-4.50;94.62;99246.25;5135145;27;20180;-54
2021/12/21 05:21:22;;;;;;;6.03;1.00;;;;;;;-4.43;93.65;99249.47;5133568;27;20672;-56
2021/12/21 05:23:49;;;;;;;8.13;1.83;;;;;;;-4.54;94.27;99249.78;5125847;27;20680;-58
2021/12/21 05:26:16;;;;;;;5.33;1.83;;;;;;;-4.48;94.83;99244.50;5113718;28;20209;-56
2021/12/21 05:28:42;;;;;;;5.60;1.70;;;;;;;-4.50;93.83;99251.38;5113259;28;20197;-56
2021/12/21 05:31:09;;;;;;;3.43;1.90;;;;;;;-4.58;93.55;99245.63;5113172;28;20254;-57
2021/12/21 05:33:37;;;;;;;7.87;1.93;;;;;;;-4.55;94.35;99245.56;5113833;28;20263;-56
2021/12/21 05:36:05;;;;;;;5.13;1.50;;;;;;;-4.47;92.99;99243.63;5113254;28;20293;-57
2021/12/21 05:38:34;;;;;;;4.93;1.70;;;;;;;-4.45;93.24;99250.34;5113652;28;20205;-58
2021/12/21 05:41:05;;;;;;;5.53;1.93;;;;;;;-4.56;93.63;99256.63;5112905;28;20351;-57
2021/12/21 05:43:32;;;;;;;6.27;1.70;;;;;;;-4.64;93.66;99255.09;5113205;28;20188;-58
2021/12/21 05:45:59;;;;;;;10.37;4.67;;;;;;;-4.66;94.67;99254.31;5113768;28;20288;-56
2021/12/21 05:48:25;;;;;;;11.97;5.00;;;;;;;-4.69;94.95;99261.16;5113622;28;20559;-58
2021/12/21 05:50:53;;;;;;;11.90;4.83;;;;;;;-4.74;95.31;99259.56;5137856;27;20694;-57
2021/12/21 05:53:20;;;;;;;5.73;3.00;;;;;;;-4.83;95.88;99264.06;5154330;27;20198;-56
2021/12/21 05:55:47;;;;;;;14.67;5.40;;;;;;;-4.82;94.75;99281.03;5144351;27;20414;-56
2021/12/21 05:58:14;;;;;;;20.23;8.57;;;;;;;-4.84;95.08;99282.78;5133462;27;20215;-56
2021/12/21 06:00:40;;;;;;;20.47;7.80;;;;;;;-4.96;95.70;99274.56;5133640;27;20185;-58
2021/12/21 06:03:07;;;;;;;18.37;9.00;;;;;;;-4.97;95.20;99284.78;5133769;27;20259;-55
2021/12/21 06:05:34;;;;;;;21.10;9.53;;;;;;;-5.02;94.09;99286.63;5132998;27;20201;-56
2021/12/21 06:08:03;;;;;;;18.57;9.70;;;;;;;-5.06;95.30;99296.00;5134006;27;20268;-56
2021/12/21 06:10:36;;;;;;;20.67;10.30;;;;;;;-5.05;96.71;99287.50;5133232;27;20276;-58
2021/12/21 06:16:19;;;;;;;17.03;8.07;;;;;;;-5.05;96.46;99296.00;5121982;27;20215;-54
2021/12/21 06:25:16;;;;;;;14.67;6.87;;;;;;;-5.39;97.70;99299.28;5126646;27;20231;-62
2021/12/21 06:27:19;;;;;;;14.33;7.03;;;;;;;-5.38;98.13;99298.44;5111471;28;20563;-57
2021/12/21 06:29:46;;;;;;;12.63;5.63;;;;;;;-5.38;98.06;99303.50;5111752;28;20188;-57
2021/12/21 06:32:13;;;;;;;14.80;6.80;;;;;;;-5.46;98.59;99313.03;5112699;28;20628;-56
2021/12/21 06:34:40;;;;;;;21.27;8.03;;;;;;;-5.39;98.88;99312.00;5112807;28;20686;-57
2021/12/21 06:37:11;;;;;;;7.07;3.20;;;;;;;-5.39;98.57;99309.47;5129906;27;20308;-57
2021/12/21 06:39:40;;;;;;;6.97;2.90;;;;;;;-5.38;98.07;99307.78;5132564;27;20272;-56
2021/12/21 06:42:08;;;;;;;12.33;4.83;;;;;;;-5.41;98.29;99302.75;5132716;27;20614;-57
2021/12/21 06:44:37;;;;;;;14.20;6.23;;;;;;;-5.36;98.52;99301.78;5132988;27;20654;-57
2021/12/21 06:51:08;;;;;;;6.47;2.53;;;;;;;-5.36;98.03;99298.41;5132219;27;20202;-56
2021/12/21 06:52:39;;;;;;;4.80;2.50;;;;;;;-5.45;98.60;99298.59;5126737;27;20701;-59
2021/12/21 06:55:09;;;;;;;9.23;3.23;;;;;;;-5.39;98.88;99293.38;5125536;27;20192;-58
2021/12/21 06:57:39;;;;;;;5.20;2.37;;;;;;;-5.36;98.27;99289.06;5133261;27;20188;-58
2021/12/21 07:00:07;;;;;;;5.63;1.53;;;;;;;-5.33;98.31;99290.72;5126206;27;20752;-59
2021/12/21 07:02:35;;;;;;;4.57;2.07;;;;;;;-5.27;98.79;99284.63;5132740;27;20180;-58
2021/12/21 07:05:02;;;;;;;4.00;1.63;;;;;;;-5.10;97.78;99291.88;5131355;27;20529;-59
2021/12/21 07:07:29;;;;;;;5.53;1.40;;;;;;;-5.16;97.57;99282.69;5132374;27;20183;-58
2021/12/21 07:10:00;;;;;;;3.53;1.60;;;;;;;-5.06;98.77;99286.69;5132032;27;20189;-56
2021/12/21 07:18:00;;;;;;;2.27;1.07;;;;;;;-5.00;96.94;99285.69;5145343;27;20283;-57
2021/12/21 07:18:12;;;;;;;5.10;1.30;;;;;;;-4.96;98.09;99289.84;5130575;27;20196;-58
2021/12/21 07:20:39;;;;;;;13.40;2.10;;;;;;;-4.91;97.06;99285.47;5130027;27;20185;-57
2021/12/21 07:23:07;;;;;;;3.97;1.60;;;;;;;-4.90;95.63;99288.88;5131082;27;20817;-57
2021/12/21 07:25:34;;;;;;;5.73;1.53;;;;;;;-4.93;95.94;99292.31;5130035;27;20273;-57
2021/12/21 07:28:02;;;;;;;6.13;1.97;;;;;;;-4.96;96.45;99291.56;5131362;27;20540;-57
2021/12/21 07:30:29;;;;;;;7.33;1.60;;;;;;;-4.91;96.33;99294.84;5130924;27;20187;-57
2021/12/21 07:32:56;;;;;;;3.43;1.30;;;;;;;-4.92;96.19;99298.25;5131795;27;20212;-57
2021/12/21 07:35:23;;;;;;;2.80;1.70;;;;;;;-4.87;95.44;99304.06;5131602;27;20230;-56
2021/12/21 07:37:50;;;;;;;5.47;2.03;;;;;;;-4.85;94.39;99301.47;5131059;27;20273;-58
2021/12/21 07:40:17;;;;;;;4.37;2.07;;;;;;;-4.85;94.81;99304.03;5131529;27;20182;-57
2021/12/21 07:42:47;;;;;;;7.20;2.03;;;;;;;-4.86;94.55;99302.34;5131537;27;20185;-58
2021/12/21 07:45:15;;;;;;;5.40;2.90;;;;;;;-4.87;95.00;99295.59;5130259;27;20245;-57
2021/12/21 07:47:42;;;;;;;9.48;5.55;;;;;;;-4.81;94.41;99303.94;5131349;27;20422;-58
2021/12/21 07:50:10;;;;;;;13.90;8.73;;;;;;;-4.75;94.07;99302.94;5129722;27;20185;-58
2021/12/21 07:52:37;;;;;;;7.80;5.00;;;;;;;-4.71;94.42;99303.69;5130501;28;20200;-58
2021/12/21 07:55:05;;;;;;;6.40;3.33;;;;;;;-4.69;93.92;99301.94;5130955;27;20185;-57
2021/12/21 07:57:32;;;;;;;20.23;9.10;;;;;;;-4.61;94.56;99300.88;5131317;27;20192;-58
2021/12/21 08:00:01;;;;;;;17.20;9.53;;;;;;;-4.69;94.62;99301.94;5130414;28;20188;-59
2021/12/21 08:02:30;;;;;;;37.80;20.23;;;;;;;-4.71;94.65;99301.13;5130665;28;20188;-57
2021/12/21 08:04:57;;;;;;;16.17;9.80;;;;;;;-4.77;94.22;99297.84;5130867;27;20667;-58
2021/12/21 08:07:52;;;;;;;13.93;8.10;;;;;;;-4.83;94.19;99298.03;5130425;28;20196;-57
2021/12/21 08:10:26;;;;;;;19.03;8.73;;;;;;;-4.85;94.78;99297.25;5130458;27;20189;-58
2021/12/21 08:12:53;;;;;;;14.37;8.20;;;;;;;-4.84;95.35;99301.47;5130543;28;20208;-58
2021/12/21 08:15:20;;;;;;;15.03;8.00;;;;;;;-4.88;95.08;99307.50;5130426;28;20209;-58
2021/12/21 08:17:49;;;;;;;17.80;6.77;;;;;;;-4.96;94.70;99304.28;5130909;28;20272;-59
2021/12/21 08:20:16;;;;;;;22.67;10.60;;;;;;;-4.85;95.90;99311.66;5130332;27;20182;-56
2021/12/21 08:22:43;;;;;;;14.80;8.17;;;;;;;-4.90;95.40;99307.53;5130563;28;20206;-58
2021/12/21 08:25:10;;;;;;;17.43;8.77;;;;;;;-4.92;95.65;99304.16;5125495;28;20297;-58
2021/12/21 08:27:37;;;;;;;16.23;8.97;;;;;;;-4.87;95.54;99306.63;5123181;28;20188;-58
2021/12/21 08:30:05;;;;;;;17.23;7.90;;;;;;;-4.83;94.75;99308.22;5129963;27;20272;-59
2021/12/21 08:32:32;;;;;;;13.63;7.20;;;;;;;-4.84;94.46;99313.34;5131089;27;20229;-59
2021/12/21 08:35:02;;;;;;;15.20;7.80;;;;;;;-4.88;94.93;99312.59;5130936;28;20573;-58
2021/12/21 08:37:29;;;;;;;20.83;8.40;;;;;;;-4.80;96.07;99303.06;5131315;27;20190;-59
2021/12/21 08:39:56;;;;;;;12.70;7.20;;;;;;;-4.78;96.30;99303.84;5133899;27;20283;-58
2021/12/21 08:42:25;;;;;;;16.37;7.93;;;;;;;-4.65;97.28;99300.97;5135443;27;20181;-59
2021/12/21 08:44:51;;;;;;;19.67;11.33;;;;;;;-4.57;97.87;99313.53;5125439;27;20548;-58
2021/12/21 08:47:18;;;;;;;17.13;8.80;;;;;;;-4.55;96.78;99311.78;5132985;27;20290;-59
2021/12/21 08:49:45;;;;;;;15.07;7.80;;;;;;;-4.51;96.82;99316.75;5132116;27;20205;-55
2021/12/21 08:52:13;;;;;;;15.47;7.50;;;;;;;-4.46;96.22;99319.22;5131302;27;20212;-57
2021/12/21 08:54:40;;;;;;;13.20;6.27;;;;;;;-4.47;96.15;99313.25;5134829;27;20193;-58
2021/12/21 08:57:07;;;;;;;14.97;5.67;;;;;;;-4.35;96.37;99309.59;5134727;27;20218;-57
2021/12/21 08:59:34;;;;;;;13.87;5.40;;;;;;;-4.28;96.61;99311.97;5134044;27;20535;-58
2021/12/21 09:02:00;;;;;;;12.73;5.50;;;;;;;-4.22;96.39;99311.78;5134660;27;20210;-57
2021/12/21 09:04:27;;;;;;;12.53;6.57;;;;;;;-4.12;96.39;99312.38;5134679;27;20272;-59
2021/12/21 09:06:54;;;;;;;16.63;7.40;;;;;;;-4.04;96.38;99308.75;5134252;27;20214;-58
2021/12/21 09:09:22;;;;;;;12.77;5.67;;;;;;;-4.00;95.19;99309.50;5134480;27;20301;-59
2021/12/21 09:11:50;;;;;;;12.07;6.22;;;;;;;-3.91;94.50;99316.91;5133644;27;20536;-59
2021/12/21 09:14:18;;;;;;;11.97;6.63;;;;;;;-3.90;94.55;99320.28;5134141;27;20186;-58
2021/12/21 09:16:45;;;;;;;11.07;5.20;;;;;;;-3.86;94.00;99317.63;5134175;27;20209;-57
2021/12/21 09:19:12;;;;;;;10.53;5.30;;;;;;;-3.78;94.01;99317.41;5133390;27;20605;-59
2021/12/21 09:21:39;;;;;;;8.67;4.57;;;;;;;-3.75;93.41;99324.16;5133122;27;20664;-58
2021/12/21 09:24:06;;;;;;;10.93;4.37;;;;;;;-3.65;93.23;99327.25;5134238;27;20705;-56
2021/12/21 09:26:34;;;;;;;8.57;4.63;;;;;;;-3.60;92.63;99327.97;5130641;27;20214;-59
2021/12/21 09:29:01;;;;;;;16.03;5.13;;;;;;;-3.52;92.39;99323.47;5115314;27;20561;-56
2021/12/21 09:31:28;;;;;;;10.27;5.20;;;;;;;-3.39;93.13;99325.69;5113110;28;20280;-59
2021/12/21 09:33:55;;;;;;;9.53;4.30;;;;;;;-3.29;92.01;99321.97;5113511;27;20213;-56
2021/12/21 09:36:23;;;;;;;11.10;5.40;;;;;;;-3.16;91.89;99330.09;5113067;28;20242;-59
2021/12/21 09:38:49;;;;;;;15.23;6.20;;;;;;;-3.04;91.77;99337.38;5113712;28;20645;-57
2021/12/21 09:41:18;;;;;;;16.87;6.83;;;;;;;-2.90;91.89;99329.28;5112599;28;20533;-59
2021/12/21 09:43:46;;;;;;;20.10;9.97;;;;;;;-2.78;92.09;99327.22;5113083;28;20660;-56
2021/12/21 09:46:14;;;;;;;19.20;10.60;;;;;;;-2.69;91.83;99321.81;5113538;27;20251;-58
2021/12/21 09:48:41;;;;;;;23.53;11.07;;;;;;;-2.70;90.14;99321.00;5135739;27;20205;-56
2021/12/21 09:51:08;;;;;;;20.53;11.03;;;;;;;-2.64;90.76;99319.09;5153180;27;20193;-59
2021/12/21 09:53:36;;;;;;;22.20;12.73;;;;;;;-2.57;90.95;99318.84;5154284;27;20224;-58
2021/12/21 09:56:05;;;;;;;31.37;16.80;;;;;;;-2.53;91.40;99317.03;5154807;27;20280;-58
2021/12/21 09:58:32;;;;;;;31.33;16.13;;;;;;;-2.49;90.71;99322.88;5154136;27;20186;-58
2021/12/21 10:01:00;;;;;;;33.33;17.10;;;;;;;-2.57;91.38;99310.34;5153682;27;20270;-59
2021/12/21 10:03:27;;;;;;;34.27;17.90;;;;;;;-2.56;92.39;99312.00;5154428;27;20225;-56
2021/12/21 10:06:03;;;;;;;34.63;17.67;;;;;;;-2.59;93.10;99304.44;5153486;27;20198;-59
2021/12/21 10:08:32;;;;;;;32.47;16.73;;;;;;;-2.47;93.11;99300.66;5154516;27;20184;-55
2021/12/21 10:11:00;;;;;;;42.27;18.20;;;;;;;-2.47;92.30;99304.03;5153413;27;20589;-58
2021/12/21 10:13:28;;;;;;;34.77;17.23;;;;;;;-2.46;92.43;99307.44;5153830;27;20213;-58
2021/12/21 10:15:57;;;;;;;30.53;14.43;;;;;;;-2.54;91.31;99300.88;5153826;27;20237;-57
2021/12/21 10:18:27;;;;;;;32.80;15.87;;;;;;;-2.49;92.16;99310.09;5154227;27;20190;-58
2021/12/21 10:20:55;;;;;;;30.70;16.03;;;;;;;-2.52;91.82;99311.88;5153268;27;20274;-59
2021/12/21 10:23:24;;;;;;;34.03;16.67;;;;;;;-2.43;91.88;99313.28;5153953;27;20256;-59
2021/12/21 10:25:53;;;;;;;32.20;15.27;;;;;;;-2.42;92.05;99317.50;5153814;27;20210;-56
2021/12/21 10:28:29;;;;;;;35.37;16.93;;;;;;;-2.39;92.92;99321.69;5131671;27;20277;-59
2021/12/21 10:30:57;;;;;;;33.73;16.83;;;;;;;-2.45;94.13;99324.44;5130904;27;20213;-58
2021/12/21 10:33:26;;;;;;;29.57;15.53;;;;;;;-2.37;94.00;99315.63;5133245;27;20207;-59
2021/12/21 10:35:55;;;;;;;30.67;16.40;;;;;;;-2.32;93.78;99325.72;5131928;27;20289;-59
2021/12/21 10:38:30;;;;;;;30.13;16.13;;;;;;;-2.27;93.50;99320.44;5132182;27;20191;-57
2021/12/21 10:41:20;;;;;;;34.07;16.33;;;;;;;-2.26;93.20;99320.38;5132234;27;20644;-59
2021/12/21 10:43:57;;;;;;;28.10;15.13;;;;;;;-2.20;93.61;99323.63;5132072;27;20590;-59
2021/12/21 10:46:26;;;;;;;32.87;17.00;;;;;;;-2.10;92.62;99315.56;5132559;27;20688;-58
2021/12/21 10:49:04;;;;;;;37.23;15.90;;;;;;;-2.08;92.04;99326.59;5132876;27;20183;-59
2021/12/21 10:51:31;;;;;;;30.93;16.40;;;;;;;-2.02;92.10;99317.03;5126594;27;20719;-59
2021/12/21 10:53:58;;;;;;;31.73;16.70;;;;;;;-1.99;92.18;99314.34;5132242;27;20215;-58
2021/12/21 10:56:28;;;;;;;27.07;13.07;;;;;;;-2.02;90.11;99317.84;5132639;27;20215;-59
2021/12/21 10:58:55;;;;;;;24.30;12.57;;;;;;;-2.00;90.40;99316.06;5132046;27;20249;-54
2021/12/21 11:01:26;;;;;;;26.67;12.87;;;;;;;-1.95;90.52;99310.81;5131070;27;20260;-58
2021/12/21 11:03:56;;;;;;;27.47;12.33;;;;;;;-1.83;90.45;99307.81;5132468;27;20229;-56
2021/12/21 11:06:26;;;;;;;22.43;11.33;;;;;;;-1.83;88.22;99314.63;5131796;27;20202;-59
2021/12/21 11:08:57;;;;;;;23.93;12.17;;;;;;;-1.76;88.58;99302.47;5132459;27;20193;-57
2021/12/21 11:11:28;;;;;;;23.77;12.73;;;;;;;-1.67;88.26;99305.50;5130558;27;20660;-58
2021/12/21 11:14:01;;;;;;;21.13;11.83;;;;;;;-1.59;88.14;99306.97;5131633;27;20684;-58
2021/12/21 11:16:37;;;;;;;23.13;11.93;;;;;;;-1.57;88.22;99294.94;5132278;27;20217;-57
2021/12/21 11:19:05;;;;;;;26.20;11.90;;;;;;;-1.49;87.16;99295.47;5132024;27;20195;-58
2021/12/21 11:21:33;;;;;;;24.53;10.37;;;;;;;-1.48;85.31;99289.47;5131580;27;20193;-58
2021/12/21 11:24:02;;;;;;;25.63;12.70;;;;;;;-1.44;86.21;99293.59;5132042;27;20550;-59
2021/12/21 11:26:31;;;;;;;30.27;13.83;;;;;;;-1.43;86.41;99289.28;5131774;27;20233;-59
2021/12/21 11:29:02;;;;;;;29.40;12.57;;;;;;;-1.40;86.38;99279.78;5125179;27;20192;-56
2021/12/21 11:31:29;;;;;;;25.83;9.97;;;;;;;-1.40;86.02;99284.91;5127760;27;20194;-58
2021/12/21 11:33:58;;;;;;;23.90;12.53;;;;;;;-1.31;85.76;99272.63;5131489;27;20696;-58
2021/12/21 11:39:13;;;;;;;26.27;12.33;;;;;;;-1.26;86.80;99273.28;5131324;27;20198;-58
2021/12/21 11:41:43;;;;;;;12.60;7.30;;;;;;;-1.19;85.72;99272.16;5130640;27;20435;-59
2021/12/21 11:44:15;;;;;;;16.97;9.97;;;;;;;-1.16;84.68;99276.31;5131446;27;20267;-58
2021/12/21 11:46:51;;;;;;;22.23;10.37;;;;;;;-1.07;84.08;99278.50;5132047;27;20222;-59
2021/12/21 11:49:27;;;;;;;18.10;9.43;;;;;;;-1.02;83.34;99275.75;5147745;27;20190;-58
2021/12/21 11:52:06;;;;;;;22.43;8.97;;;;;;;-1.03;82.60;99269.81;5150489;27;20198;-57
2021/12/21 11:54:43;;;;;;;14.90;7.77;;;;;;;-1.00;82.05;99267.13;5153036;27;20213;-59
2021/12/21 11:57:10;;;;;;;15.13;8.67;;;;;;;-0.88;82.50;99267.53;5151696;27;20782;-57
2021/12/21 11:59:37;;;;;;;17.97;9.60;;;;;;;-0.85;82.35;99255.41;5151248;27;20280;-60
2021/12/21 12:02:04;;;;;;;18.37;9.23;;;;;;;-0.82;82.03;99260.41;5151533;27;20187;-59
2021/12/21 12:04:33;;;;;;;21.23;9.63;;;;;;;-0.80;82.41;99258.63;5151514;27;20183;-58
2021/12/21 12:07:01;;;;;;;18.77;8.97;;;;;;;-0.74;81.61;99249.84;5152329;27;20206;-58
2021/12/21 12:09:30;;;;;;;17.93;9.50;;;;;;;-0.70;81.92;99251.41;5152325;27;20645;-58
2021/12/21 12:12:07;;;;;;;22.00;9.60;;;;;;;-0.66;80.21;99257.22;5151292;27;20992;-59